createdAt,value
2018-07-02T00:01:50.177Z,13.73
2018-07-02T00:04:20.580Z,13.67
2018-07-02T00:07:01.149Z,13.62
2018-07-02T00:09:31.702Z,13.61
2018-07-02T00:12:02.298Z,13.62
2018-07-02T00:14:32.822Z,13.63
2018-07-02T00:17:03.265Z,13.58
2018-07-02T00:19:34.273Z,13.52
2018-07-02T00:22:04.761Z,13.48
2018-07-02T00:24:35.301Z,13.47
2018-07-02T00:27:06.076Z,13.47
2018-07-02T00:29:36.597Z,13.49
2018-07-02T00:32:07.173Z,13.48
2018-07-02T00:34:37.937Z,13.47
2018-07-02T00:37:08.387Z,13.42
2018-07-02T00:39:38.817Z,13.25
2018-07-02T00:42:09.996Z,13.14
2018-07-02T00:44:40.812Z,13.13
2018-07-02T00:47:11.303Z,13.06
2018-07-02T00:49:41.747Z,13.02
2018-07-02T00:52:12.369Z,12.97
2018-07-02T00:54:42.723Z,12.79
2018-07-02T00:57:12.888Z,12.81
2018-07-02T00:59:43.293Z,12.75
2018-07-02T01:02:13.902Z,12.67
2018-07-02T01:04:44.812Z,12.36
2018-07-02T01:07:27.000Z,12.61
2018-07-02T01:09:58.084Z,12.57
2018-07-02T01:12:28.901Z,12.61
2018-07-02T01:14:59.389Z,12.65
2018-07-02T01:17:29.960Z,12.58
2018-07-02T01:20:00.942Z,12.60
2018-07-02T01:22:31.685Z,12.52
2018-07-02T01:25:02.244Z,12.46
2018-07-02T01:27:35.315Z,12.46
2018-07-02T01:30:06.682Z,12.48
2018-07-02T01:32:37.239Z,12.42
2018-07-02T01:35:08.262Z,12.40
2018-07-02T01:37:38.900Z,12.32
2018-07-02T01:40:09.514Z,12.26
2018-07-02T01:42:40.269Z,12.07
2018-07-02T01:45:10.796Z,12.10
2018-07-02T01:47:41.191Z,12.07
2018-07-02T01:50:12.095Z,12.02
2018-07-02T01:52:42.212Z,11.95
2018-07-02T01:55:12.345Z,11.88
2018-07-02T01:57:43.104Z,11.82
2018-07-02T02:00:13.544Z,11.76
2018-07-02T02:02:44.139Z,11.71
2018-07-02T02:05:14.606Z,11.69
2018-07-02T02:07:46.457Z,11.71
2018-07-02T02:10:16.864Z,11.76
2018-07-02T02:12:47.457Z,11.77
2018-07-02T02:15:18.555Z,11.74
2018-07-02T02:17:49.161Z,11.67
2018-07-02T02:20:20.093Z,11.62
2018-07-02T02:22:51.335Z,11.61
2018-07-02T02:25:21.867Z,11.55
2018-07-02T02:27:52.400Z,11.67
2018-07-02T02:30:23.100Z,11.67
2018-07-02T02:32:54.153Z,11.62
2018-07-02T02:35:24.612Z,11.52
2018-07-02T02:37:55.320Z,11.40
2018-07-02T02:40:26.560Z,11.34
2018-07-02T02:42:57.595Z,11.37
2018-07-02T02:45:28.301Z,11.43
2018-07-02T02:47:58.824Z,11.49
2018-07-02T02:50:29.351Z,11.50
2018-07-02T02:52:59.861Z,11.47
2018-07-02T02:55:30.756Z,11.45
2018-07-02T02:58:01.248Z,11.41
2018-07-02T03:00:31.761Z,11.40
2018-07-02T03:03:02.627Z,11.43
2018-07-02T03:05:33.312Z,11.46
2018-07-02T03:08:03.908Z,11.45
2018-07-02T03:10:34.392Z,11.41
2018-07-02T03:13:04.972Z,11.41
2018-07-02T03:15:35.674Z,11.39
2018-07-02T03:18:06.196Z,11.35
2018-07-02T03:20:36.874Z,11.23
2018-07-02T03:23:07.695Z,11.36
2018-07-02T03:25:38.208Z,11.42
2018-07-02T03:28:08.636Z,11.44
2018-07-02T03:30:39.388Z,11.40
2018-07-02T03:33:10.079Z,11.32
2018-07-02T03:35:40.652Z,11.31
2018-07-02T03:38:11.114Z,11.33
2018-07-02T03:40:42.069Z,11.32
2018-07-02T03:43:12.625Z,11.30
2018-07-02T03:45:43.126Z,11.28
2018-07-02T03:48:13.668Z,11.28
2018-07-02T03:50:44.304Z,11.32
2018-07-02T03:53:14.922Z,11.34
2018-07-02T03:55:45.457Z,11.37
2018-07-02T03:58:16.081Z,11.42
2018-07-02T04:00:46.932Z,11.45
2018-07-02T04:03:17.680Z,11.47
2018-07-02T04:05:48.392Z,11.51
2018-07-02T04:08:19.040Z,11.55
2018-07-02T04:10:51.987Z,11.58
2018-07-02T04:13:22.620Z,11.61
2018-07-02T04:15:53.284Z,11.61
2018-07-02T04:18:24.263Z,11.52
2018-07-02T04:20:54.780Z,11.56
2018-07-02T04:23:25.244Z,11.58
2018-07-02T04:25:55.978Z,11.74
2018-07-02T04:28:26.755Z,11.78
2018-07-02T04:30:58.006Z,11.80
2018-07-02T04:33:28.385Z,11.82
2018-07-02T04:35:58.908Z,11.76
2018-07-02T04:38:30.301Z,11.87
2018-07-02T04:41:00.932Z,11.94
2018-07-02T04:43:31.638Z,11.99
2018-07-02T04:46:02.260Z,12.04
2018-07-02T04:48:32.903Z,12.08
2018-07-02T04:51:03.073Z,12.11
2018-07-02T04:53:34.109Z,12.16
2018-07-02T04:56:04.798Z,12.17
2018-07-02T04:58:35.268Z,11.73
2018-07-02T05:01:06.324Z,12.12
2018-07-02T05:03:36.984Z,12.15
2018-07-02T05:06:08.365Z,12.18
2018-07-02T05:08:39.145Z,12.20
2018-07-02T05:11:09.965Z,12.14
2018-07-02T05:13:40.504Z,12.29
2018-07-02T05:16:15.973Z,12.32
2018-07-02T05:18:46.328Z,12.29
2018-07-02T05:21:16.708Z,12.44
2018-07-02T05:23:47.205Z,12.51
2018-07-02T05:26:17.685Z,12.59
2018-07-02T05:28:48.369Z,12.21
2018-07-02T05:31:18.473Z,12.78
2018-07-02T05:33:49.493Z,12.90
2018-07-02T05:36:19.636Z,12.99
2018-07-02T05:38:50.285Z,13.02
2018-07-02T05:41:20.885Z,13.07
2018-07-02T05:43:50.936Z,13.14
2018-07-02T05:46:21.236Z,13.23
2018-07-02T05:48:52.236Z,13.31
2018-07-02T05:51:22.637Z,13.47
2018-07-02T05:53:53.556Z,13.61
2018-07-02T05:56:24.368Z,13.71
2018-07-02T05:58:54.832Z,13.77
2018-07-02T06:01:25.628Z,13.78
2018-07-02T06:03:55.996Z,13.79
2018-07-02T06:06:26.545Z,13.81
2018-07-02T06:08:57.413Z,13.98
2018-07-02T06:11:27.416Z,14.02
2018-07-02T06:13:57.453Z,14.06
2018-07-02T06:16:28.216Z,14.11
2018-07-02T06:18:58.278Z,14.20
2018-07-02T06:21:28.818Z,14.30
2018-07-02T06:23:59.797Z,14.18
2018-07-02T06:26:30.300Z,14.40
2018-07-02T06:29:00.857Z,14.57
2018-07-02T06:31:31.173Z,14.62
2018-07-02T06:34:01.225Z,14.66
2018-07-02T06:36:31.340Z,14.73
2018-07-02T06:39:01.674Z,14.85
2018-07-02T06:41:31.693Z,14.91
2018-07-02T06:44:01.773Z,15.14
2018-07-02T06:46:32.157Z,15.38
2018-07-02T06:49:02.944Z,15.41
2018-07-02T06:51:33.404Z,15.46
2018-07-02T06:54:04.427Z,15.56
2018-07-02T06:56:34.533Z,15.67
2018-07-02T06:59:04.960Z,15.86
2018-07-02T07:01:36.046Z,16.03
2018-07-02T07:04:06.176Z,16.08
2018-07-02T07:06:36.766Z,16.20
2018-07-02T07:09:09.773Z,16.25
2018-07-02T07:11:40.518Z,16.35
2018-07-02T07:14:10.906Z,16.49
2018-07-02T07:16:41.028Z,16.89
2018-07-02T07:19:11.104Z,17.29
2018-07-02T07:21:41.474Z,17.47
2018-07-02T07:24:11.804Z,17.77
2018-07-02T07:26:42.267Z,18.30
2018-07-02T07:29:12.913Z,18.67
2018-07-02T07:31:43.393Z,19.02
2018-07-02T07:34:13.912Z,19.23
2018-07-02T07:36:44.803Z,19.44
2018-07-02T07:39:15.909Z,19.86
2018-07-02T07:41:45.922Z,20.16
2018-07-02T07:44:17.296Z,20.40
2018-07-02T07:46:47.369Z,20.65
2018-07-02T07:49:18.437Z,20.75
2018-07-02T07:51:48.777Z,20.98
2018-07-02T07:54:19.845Z,21.43
2018-07-02T07:56:50.068Z,21.61
2018-07-02T07:59:20.552Z,21.65
2018-07-02T08:01:51.056Z,21.85
2018-07-02T08:04:21.370Z,22.06
2018-07-02T08:06:52.978Z,22.39
2018-07-02T08:09:23.436Z,22.58
2018-07-02T08:11:53.482Z,22.87
2018-07-02T08:14:23.822Z,23.08
2018-07-02T08:16:54.286Z,22.96
2018-07-02T08:19:25.101Z,23.01
2018-07-02T08:21:55.772Z,22.88
2018-07-02T08:24:26.137Z,23.32
2018-07-02T08:26:56.189Z,23.73
2018-07-02T08:29:26.900Z,23.95
2018-07-02T08:31:56.909Z,24.16
2018-07-02T08:34:26.924Z,24.36
2018-07-02T08:36:57.261Z,24.46
2018-07-02T08:39:27.304Z,24.31
2018-07-02T08:41:57.370Z,23.95
2018-07-02T08:44:27.756Z,23.88
2018-07-02T08:46:57.789Z,24.00
2018-07-02T08:49:27.841Z,24.12
2018-07-02T08:51:58.257Z,24.70
2018-07-02T08:54:28.344Z,24.99
2018-07-02T08:56:58.360Z,25.20
2018-07-02T08:59:29.072Z,24.88
2018-07-02T09:02:00.065Z,24.92
2018-07-02T09:04:30.380Z,24.67
2018-07-02T09:07:00.646Z,24.31
2018-07-02T09:09:30.766Z,24.23
2018-07-02T09:12:01.220Z,24.21
2018-07-02T09:14:31.702Z,24.31
2018-07-02T09:17:01.837Z,24.52
2018-07-02T09:19:32.221Z,24.67
2018-07-02T09:22:02.744Z,25.07
2018-07-02T09:24:33.504Z,25.31
2018-07-02T09:27:03.603Z,25.39
2018-07-02T09:29:33.668Z,25.54
2018-07-02T09:32:04.019Z,25.90
2018-07-02T09:34:34.112Z,25.73
2018-07-02T09:37:04.521Z,25.24
2018-07-02T09:39:35.006Z,25.13
2018-07-02T09:42:05.120Z,25.11
2018-07-02T09:44:35.632Z,25.36
2018-07-02T09:47:06.513Z,25.57
2018-07-02T09:49:36.632Z,25.69
2018-07-02T09:52:07.147Z,25.62
2018-07-02T09:54:37.917Z,25.43
2018-07-02T09:57:08.297Z,25.52
2018-07-02T09:59:38.324Z,25.80
2018-07-02T10:02:09.216Z,26.06
2018-07-02T10:04:39.316Z,26.18
2018-07-02T10:07:09.369Z,26.24
2018-07-02T10:09:39.695Z,26.47
2018-07-02T10:12:09.009Z,26.74
2018-07-02T10:14:39.087Z,27.18
2018-07-02T10:17:09.484Z,27.47
2018-07-02T10:19:39.560Z,27.73
2018-07-02T10:22:09.600Z,27.95
2018-07-02T10:24:40.305Z,27.80
2018-07-02T10:27:10.764Z,27.70
2018-07-02T10:29:40.794Z,27.98
2018-07-02T10:32:11.723Z,27.83
2018-07-02T10:34:41.894Z,27.29
2018-07-02T10:37:12.045Z,27.18
2018-07-02T10:39:42.420Z,27.48
2018-07-02T10:42:12.603Z,27.49
2018-07-02T10:44:42.986Z,27.64
2018-07-02T10:47:13.285Z,27.73
2018-07-02T10:49:43.639Z,27.90
2018-07-02T10:52:13.712Z,28.08
2018-07-02T10:54:44.112Z,27.98
2018-07-02T10:57:14.497Z,27.93
2018-07-02T10:59:44.924Z,27.83
2018-07-02T11:02:15.580Z,27.97
2018-07-02T11:04:46.030Z,28.34
2018-07-02T11:07:16.084Z,28.42
2018-07-02T11:09:46.466Z,28.43
2018-07-02T11:12:17.024Z,28.11
2018-07-02T11:14:47.076Z,27.87
2018-07-02T11:17:17.483Z,27.87
2018-07-02T11:19:47.567Z,28.34
2018-07-02T11:22:17.928Z,28.86
2018-07-02T11:24:48.261Z,29.14
2018-07-02T11:27:18.757Z,29.31
2018-07-02T11:29:48.860Z,29.16
2018-07-02T11:32:19.593Z,29.10
2018-07-02T11:34:49.630Z,29.19
2018-07-02T11:37:19.849Z,29.26
2018-07-02T11:39:50.160Z,29.00
2018-07-02T11:42:21.008Z,28.91
2018-07-02T11:44:51.053Z,28.77
2018-07-02T11:47:21.490Z,29.04
2018-07-02T11:49:51.556Z,28.99
2018-07-02T11:52:21.636Z,29.08
2018-07-02T11:54:52.284Z,28.90
2018-07-02T11:57:22.365Z,28.38
2018-07-02T11:59:52.637Z,28.11
2018-07-02T12:02:22.827Z,28.27
2018-07-02T12:04:52.929Z,28.73
2018-07-02T12:07:23.288Z,28.78
2018-07-02T12:09:53.971Z,28.73
2018-07-02T12:12:24.119Z,28.95
2018-07-02T12:14:54.541Z,29.09
2018-07-02T12:17:24.901Z,29.02
2018-07-02T12:19:55.892Z,29.18
2018-07-02T12:22:25.944Z,29.27
2018-07-02T12:24:56.284Z,29.13
2018-07-02T12:27:26.457Z,28.82
2018-07-02T12:29:56.493Z,28.54
2018-07-02T12:32:26.844Z,28.50
2018-07-02T12:34:56.891Z,28.35
2018-07-02T12:37:27.489Z,28.43
2018-07-02T12:39:57.826Z,28.66
2018-07-02T12:42:27.964Z,29.13
2018-07-02T12:44:57.976Z,29.08
2018-07-02T12:47:28.905Z,29.07
2018-07-02T12:49:59.050Z,28.90
2018-07-02T12:52:29.141Z,28.89
2018-07-02T12:54:59.501Z,29.16
2018-07-02T12:57:30.118Z,29.19
2018-07-02T13:00:00.157Z,29.13
2018-07-02T13:02:30.677Z,28.87
2018-07-02T13:05:01.925Z,28.81
2018-07-02T13:07:32.035Z,29.11
2018-07-02T13:10:02.441Z,29.36
2018-07-02T13:12:32.829Z,29.14
2018-07-02T13:15:02.866Z,29.27
2018-07-02T13:17:34.475Z,29.53
2018-07-02T13:20:05.686Z,29.68
2018-07-02T13:22:36.286Z,29.92
2018-07-02T13:25:06.361Z,30.02
2018-07-02T13:27:36.757Z,29.96
2018-07-02T13:30:08.121Z,30.23
2018-07-02T13:32:38.213Z,30.11
2018-07-02T13:35:08.372Z,30.35
2018-07-02T13:37:38.895Z,30.21
2018-07-02T13:40:10.694Z,30.27
2018-07-02T13:42:43.030Z,30.33
2018-07-02T13:45:13.541Z,30.19
2018-07-02T13:47:43.709Z,30.03
2018-07-02T13:50:13.937Z,29.75
2018-07-02T13:52:44.373Z,29.55
2018-07-02T13:55:14.585Z,29.48
2018-07-02T13:57:44.742Z,29.65
2018-07-02T14:00:15.123Z,29.93
2018-07-02T14:02:45.388Z,30.23
2018-07-02T14:05:15.444Z,30.36
2018-07-02T14:07:45.822Z,30.36
2018-07-02T14:10:15.889Z,30.47
2018-07-02T14:12:49.225Z,30.39
2018-07-02T14:15:19.648Z,30.26
2018-07-02T14:17:50.614Z,30.46
2018-07-02T14:20:20.766Z,30.54
2018-07-02T14:22:51.056Z,30.35
2018-07-02T14:25:21.117Z,30.42
2018-07-02T14:27:51.188Z,30.29
2018-07-02T14:30:21.273Z,29.98
2018-07-02T14:32:51.671Z,29.98
2018-07-02T14:35:21.746Z,29.96
2018-07-02T14:37:51.855Z,29.99
2018-07-02T14:40:22.210Z,29.97
2018-07-02T14:42:52.313Z,29.92
2018-07-02T14:45:22.448Z,30.02
2018-07-02T14:47:52.861Z,30.07
2018-07-02T14:50:22.848Z,29.95
2018-07-02T14:52:53.042Z,29.97
2018-07-02T14:55:23.417Z,30.06
2018-07-02T14:57:53.505Z,30.11
2018-07-02T15:00:23.594Z,30.19
2018-07-02T15:02:53.929Z,30.11
2018-07-02T15:05:23.989Z,30.02
2018-07-02T15:07:54.033Z,29.93
2018-07-02T15:10:24.317Z,29.77
2018-07-02T15:12:54.380Z,29.60
2018-07-02T15:15:26.286Z,29.02
2018-07-02T15:17:56.357Z,29.67
2018-07-02T15:20:26.433Z,29.64
2018-07-02T15:22:56.885Z,29.59
2018-07-02T15:25:27.037Z,29.66
2018-07-02T15:27:57.125Z,29.39
2018-07-02T15:30:27.449Z,28.84
2018-07-02T15:32:57.906Z,28.69
2018-07-02T15:35:28.567Z,28.83
2018-07-02T15:37:58.627Z,28.90
2018-07-02T15:40:30.836Z,28.90
2018-07-02T15:43:00.921Z,28.93
2018-07-02T15:45:33.414Z,29.12
2018-07-02T15:48:04.440Z,29.33
2018-07-02T15:50:34.477Z,29.23
2018-07-02T15:53:05.675Z,29.38
2018-07-02T15:55:36.769Z,29.55
2018-07-02T15:58:06.893Z,29.59
2018-07-02T16:00:37.294Z,29.58
2018-07-02T16:03:07.484Z,29.49
2018-07-02T16:05:37.604Z,29.17
2018-07-02T16:08:07.956Z,29.03
2018-07-02T16:10:38.116Z,29.26
2018-07-02T16:13:08.321Z,29.25
2018-07-02T16:15:38.768Z,29.16
2018-07-02T16:18:13.980Z,29.14
2018-07-02T16:23:37.741Z,29.18
2018-07-02T16:26:08.167Z,29.24
2018-07-02T16:28:39.073Z,29.25
2018-07-02T16:31:09.149Z,29.24
2018-07-02T16:33:39.585Z,29.02
2018-07-02T16:36:09.618Z,28.85
2018-07-02T16:38:40.714Z,28.85
2018-07-02T16:41:11.081Z,28.92
2018-07-02T16:43:41.181Z,28.94
2018-07-02T16:46:11.497Z,28.95
2018-07-02T16:48:41.853Z,28.91
2018-07-02T16:51:11.900Z,28.79
2018-07-02T16:53:42.052Z,28.69
2018-07-02T16:56:13.481Z,28.44
2018-07-02T16:58:43.532Z,28.33
2018-07-02T17:01:13.639Z,28.34
2018-07-02T17:03:44.080Z,28.36
2018-07-02T17:06:14.181Z,28.39
2018-07-02T17:08:44.836Z,28.34
2018-07-02T17:11:16.711Z,28.34
2018-07-02T17:13:47.699Z,28.30
2018-07-02T17:16:18.065Z,28.31
2018-07-02T17:18:54.029Z,28.35
2018-07-02T17:21:24.435Z,28.23
2018-07-02T17:26:33.009Z,27.54
2018-07-02T17:29:05.361Z,27.75
2018-07-02T17:31:37.277Z,27.83
2018-07-02T17:34:10.640Z,28.06
2018-07-02T17:36:41.253Z,28.11
2018-07-02T17:39:12.176Z,27.98
2018-07-02T17:41:42.299Z,28.03
2018-07-02T17:44:12.441Z,27.94
2018-07-02T17:46:42.769Z,27.76
2018-07-02T17:49:16.967Z,27.65
2018-07-02T17:51:46.989Z,27.58
2018-07-02T17:54:17.313Z,27.55
2018-07-02T17:56:47.384Z,27.55
2018-07-02T17:59:17.474Z,27.40
2018-07-02T18:01:47.841Z,27.28
2018-07-02T18:04:17.944Z,27.37
2018-07-02T18:06:48.004Z,27.11
2018-07-02T18:09:18.349Z,27.27
2018-07-02T18:11:48.894Z,27.23
2018-07-02T18:14:26.974Z,27.16
2018-07-02T18:16:59.071Z,27.03
2018-07-02T18:19:29.484Z,27.01
2018-07-02T18:21:59.563Z,26.93
2018-07-02T18:24:29.920Z,26.89
2018-07-02T18:27:00.037Z,26.80
2018-07-02T18:29:30.297Z,26.67
2018-07-02T18:32:00.689Z,26.76
2018-07-02T18:34:30.782Z,26.68
2018-07-02T18:37:00.856Z,26.63
2018-07-02T18:39:31.321Z,26.52
2018-07-02T18:42:01.833Z,26.29
2018-07-02T18:44:33.348Z,26.09
2018-07-02T18:47:04.814Z,25.84
2018-07-02T18:49:34.898Z,25.53
2018-07-02T18:52:05.917Z,25.40
2018-07-02T18:54:36.268Z,25.19
2018-07-02T18:57:06.837Z,25.02
2018-07-02T18:59:36.941Z,24.86
2018-07-02T19:02:07.672Z,24.71
2018-07-02T19:04:38.681Z,24.55
2018-07-02T19:07:09.233Z,24.32
2018-07-02T19:09:39.225Z,24.25
2018-07-02T19:12:14.200Z,24.09
2018-07-02T19:14:48.444Z,23.56
2018-07-02T19:17:18.548Z,23.82
2018-07-02T19:19:48.810Z,23.71
2018-07-02T19:22:19.188Z,23.57
2018-07-02T19:24:49.302Z,23.44
2018-07-02T19:27:19.497Z,23.32
2018-07-02T19:29:50.169Z,23.18
2018-07-02T19:32:20.340Z,23.04
2018-07-02T19:34:50.460Z,22.91
2018-07-02T19:37:20.810Z,22.76
2018-07-02T19:39:51.296Z,22.63
2018-07-02T19:42:21.292Z,22.49
2018-07-02T19:44:51.545Z,22.38
2018-07-02T19:47:21.573Z,22.27
2018-07-02T19:49:51.681Z,22.16
2018-07-02T19:52:22.037Z,21.91
2018-07-02T19:54:52.647Z,21.80
2018-07-02T19:57:22.680Z,21.82
2018-07-02T19:59:53.055Z,21.73
2018-07-02T20:02:24.088Z,21.62
2018-07-02T20:05:07.877Z,21.52
2018-07-02T20:07:38.459Z,21.42
2018-07-02T20:10:08.585Z,21.32
2018-07-02T20:12:40.541Z,21.22
2018-07-02T20:15:10.621Z,21.14
2018-07-02T20:17:48.368Z,20.84
2018-07-02T20:20:19.016Z,20.97
2018-07-02T20:22:49.242Z,20.87
2018-07-02T20:25:19.662Z,20.78
2018-07-02T20:27:49.756Z,20.53
2018-07-02T20:30:19.824Z,20.60
2018-07-02T20:32:50.220Z,20.50
2018-07-02T20:35:20.796Z,20.42
2018-07-02T20:37:51.091Z,20.37
2018-07-02T20:40:22.268Z,20.20
2018-07-02T20:42:52.452Z,20.18
2018-07-02T20:45:22.825Z,20.11
2018-07-02T20:47:53.435Z,19.86
2018-07-02T20:50:23.501Z,19.94
2018-07-02T20:52:53.891Z,19.87
2018-07-02T20:55:23.936Z,19.79
2018-07-02T20:57:54.460Z,19.73
2018-07-02T21:00:32.041Z,19.66
2018-07-02T21:03:03.522Z,19.59
2018-07-02T21:05:33.940Z,19.52
2018-07-02T21:08:04.531Z,19.22
2018-07-02T21:10:34.756Z,19.40
2018-07-02T21:13:05.406Z,19.33
2018-07-02T21:15:37.505Z,19.18
2018-07-02T21:18:07.649Z,19.20
2018-07-02T21:23:12.429Z,19.06
2018-07-02T21:25:42.558Z,19.00
2018-07-02T21:28:12.929Z,18.94
2018-07-02T21:30:47.745Z,18.87
2018-07-02T21:33:18.399Z,18.58
2018-07-02T21:35:48.504Z,18.74
2018-07-02T21:38:18.660Z,18.69
2018-07-02T21:40:49.784Z,18.45
2018-07-02T21:43:19.861Z,18.49
2018-07-02T21:45:50.123Z,18.53
2018-07-02T21:48:20.605Z,18.48
2018-07-02T21:50:50.707Z,18.42
2018-07-02T21:53:20.819Z,18.36
2018-07-02T21:55:51.462Z,18.31
2018-07-02T21:58:21.580Z,18.27
2018-07-02T22:00:51.616Z,18.22
2018-07-02T22:03:21.954Z,18.18
2018-07-02T22:05:52.041Z,18.10
2018-07-02T22:08:22.085Z,17.98
2018-07-02T22:10:52.563Z,17.87
2018-07-02T22:13:22.999Z,17.76
2018-07-02T22:15:53.105Z,17.62
2018-07-02T22:18:23.717Z,17.48
2018-07-02T22:20:53.766Z,17.30
2018-07-02T22:23:23.916Z,17.13
2018-07-02T22:25:54.330Z,17.02
2018-07-02T22:28:24.377Z,16.97
2018-07-02T22:30:54.457Z,16.91
2018-07-02T22:33:24.792Z,16.88
2018-07-02T22:35:54.869Z,16.86
2018-07-02T22:38:24.936Z,16.82
2018-07-02T22:40:55.664Z,16.77
2018-07-02T22:43:25.778Z,16.69
2018-07-02T22:45:55.895Z,16.64
2018-07-02T22:48:26.364Z,16.58
2018-07-02T22:50:56.868Z,16.55
2018-07-02T22:53:26.904Z,16.52
2018-07-02T22:56:03.512Z,16.48
2018-07-02T22:58:34.455Z,16.48
2018-07-02T23:01:05.015Z,16.45
2018-07-02T23:03:35.356Z,16.43
2018-07-02T23:06:05.688Z,16.39
2018-07-02T23:08:35.736Z,16.18
2018-07-02T23:11:06.509Z,16.34
2018-07-02T23:13:36.602Z,16.31
2018-07-02T23:16:06.792Z,16.27
2018-07-02T23:18:36.912Z,16.19
2018-07-02T23:26:48.225Z,15.98
2018-07-02T23:29:18.152Z,15.94
2018-07-02T23:31:47.709Z,15.82
2018-07-02T23:34:17.288Z,15.90
2018-07-02T23:36:47.181Z,15.89
2018-07-02T23:39:16.741Z,15.86
2018-07-02T23:41:46.239Z,15.65
2018-07-02T23:44:16.579Z,15.63
2018-07-02T23:46:47.657Z,15.76
2018-07-02T23:49:17.603Z,15.74
2018-07-02T23:51:47.865Z,15.72
2018-07-02T23:54:18.055Z,15.68
2018-07-02T23:56:47.585Z,15.66
2018-07-02T23:59:17.450Z,15.61
